createdAt,value
2023-04-17T00:00:24.128Z,-23940.66
2023-04-17T00:02:53.379Z,-23940.85
2023-04-17T00:08:15.493Z,-23941.54
2023-04-17T00:10:47.141Z,-23941.32
2023-04-17T00:13:24.344Z,-23941.92
2023-04-17T00:15:52.446Z,-23941.89
2023-04-17T00:18:20.821Z,-23941.86
2023-04-17T00:20:49.041Z,-23941.70
2023-04-17T00:23:17.451Z,-23941.67
2023-04-17T00:25:45.749Z,-23942.02
2023-04-17T00:28:14.302Z,-23942.32
2023-04-17T00:30:42.507Z,-23942.89
2023-04-17T00:33:10.737Z,-23943.49
2023-04-17T00:35:39.003Z,-23944.08
2023-04-17T00:38:09.326Z,-23944.64
2023-04-17T00:40:38.244Z,-23944.83
2023-04-17T00:43:06.763Z,-23944.65
2023-04-17T00:45:35.718Z,-23944.11
2023-04-17T00:48:04.996Z,-23943.39
2023-04-17T00:50:33.344Z,-23942.39
2023-04-17T00:53:01.615Z,-23941.70
2023-04-17T00:55:29.793Z,-23941.70
2023-04-17T00:57:58.036Z,-23941.89
2023-04-17T01:00:26.355Z,-23942.29
2023-04-17T01:02:56.864Z,-23942.98
2023-04-17T01:05:28.166Z,-23943.61
2023-04-17T01:07:57.535Z,-23944.14
2023-04-17T01:10:25.686Z,-23944.33
2023-04-17T01:13:04.090Z,-23944.39
2023-04-17T01:15:32.442Z,-23944.83
2023-04-17T01:18:00.709Z,-23945.21
2023-04-17T01:20:31.321Z,-23945.71
2023-04-17T01:22:59.672Z,-23945.36
2023-04-17T01:25:28.160Z,-23945.46
2023-04-17T01:27:57.164Z,-23945.64
2023-04-17T01:30:25.604Z,-23945.58
2023-04-17T01:33:02.364Z,-23945.36
2023-04-17T01:35:30.678Z,-23945.24
2023-04-17T01:37:59.308Z,-23945.27
2023-04-17T01:40:27.480Z,-23945.18
2023-04-17T01:42:55.678Z,-23945.80
2023-04-17T01:45:23.761Z,-23946.27
2023-04-17T01:47:52.079Z,-23946.14
2023-04-17T01:50:20.426Z,-23946.08
2023-04-17T01:52:48.807Z,-23946.30
2023-04-17T01:55:18.263Z,-23946.96
2023-04-17T01:57:46.536Z,-23947.59
2023-04-17T02:00:15.022Z,-23947.81
2023-04-17T02:02:46.732Z,-23947.65
2023-04-17T02:05:14.961Z,-23947.62
2023-04-17T02:07:45.767Z,-23948.09
2023-04-17T02:10:14.113Z,-23948.37
2023-04-17T02:12:42.862Z,-23948.78
2023-04-17T02:15:11.342Z,-23949.03
2023-04-17T02:17:39.895Z,-23949.21
2023-04-17T02:20:09.131Z,-23949.03
2023-04-17T02:22:37.825Z,-23948.81
2023-04-17T02:25:06.138Z,-23948.62
2023-04-17T02:27:34.935Z,-23948.34
2023-04-17T02:30:03.886Z,-23948.40
2023-04-17T02:32:33.846Z,-23948.53
2023-04-17T02:35:02.334Z,-23948.81
2023-04-17T02:37:30.714Z,-23948.81
2023-04-17T02:39:58.913Z,-23948.75
2023-04-17T02:42:27.107Z,-23949.28
2023-04-17T02:44:55.352Z,-23949.81
2023-04-17T02:47:23.761Z,-23949.66
2023-04-17T02:49:52.043Z,-23949.75
2023-04-17T02:52:20.199Z,-23949.66
2023-04-17T02:54:48.382Z,-23949.69
2023-04-17T02:57:18.409Z,-23950.00
2023-04-17T02:59:46.627Z,-23950.13
2023-04-17T03:02:14.867Z,-23950.25
2023-04-17T03:04:43.330Z,-23950.63
2023-04-17T03:07:11.866Z,-23950.75
2023-04-17T03:09:40.245Z,-23950.84
2023-04-17T03:12:08.544Z,-23951.09
2023-04-17T03:14:36.644Z,-23951.16
2023-04-17T03:17:04.776Z,-23951.22
2023-04-17T03:19:33.388Z,-23951.22
2023-04-17T03:22:04.524Z,-23951.47
2023-04-17T03:24:32.990Z,-23951.54
2023-04-17T03:27:03.589Z,-23952.16
2023-04-17T03:29:38.026Z,-23953.01
2023-04-17T03:32:06.512Z,-23953.79
2023-04-17T03:34:35.512Z,-23954.48
2023-04-17T03:37:03.718Z,-23955.26
2023-04-17T03:39:32.679Z,-23955.76
2023-04-17T03:42:02.675Z,-23956.14
2023-04-17T03:44:31.268Z,-23956.73
2023-04-17T03:46:59.439Z,-23957.20
2023-04-17T03:49:27.688Z,-23957.64
2023-04-17T03:51:57.506Z,-23958.05
2023-04-17T03:54:26.243Z,-23958.77
2023-04-17T03:56:56.250Z,-23959.64
2023-04-17T03:59:24.899Z,-23960.36
2023-04-17T04:01:54.337Z,-23961.08
2023-04-17T04:04:24.719Z,-23961.90
2023-04-17T04:07:01.682Z,-23962.87
2023-04-17T04:09:30.611Z,-23963.49
2023-04-17T04:11:59.307Z,-23964.15
2023-04-17T04:14:27.614Z,-23964.56
2023-04-17T04:16:56.376Z,-23964.90
2023-04-17T04:19:24.452Z,-23965.59
2023-04-17T04:21:53.733Z,-23966.03
2023-04-17T04:24:22.721Z,-23966.38
2023-04-17T04:26:52.150Z,-23966.53
2023-04-17T04:29:25.723Z,-23966.93
2023-04-17T04:31:59.281Z,-23967.53
2023-04-17T04:34:31.309Z,-23968.38
2023-04-17T04:36:59.411Z,-23968.81
2023-04-17T04:39:32.168Z,-23969.50
2023-04-17T04:42:06.327Z,-23970.57
2023-04-17T04:44:44.427Z,-23971.60
2023-04-17T04:47:12.825Z,-23972.44
2023-04-17T04:49:42.066Z,-23973.23
2023-04-17T04:52:11.042Z,-23973.79
2023-04-17T04:54:39.268Z,-23974.17
2023-04-17T04:57:07.374Z,-23974.73
2023-04-17T04:59:38.867Z,-23975.32
2023-04-17T05:02:33.853Z,-23975.86
2023-04-17T05:05:02.724Z,-23976.20
2023-04-17T05:07:32.459Z,-23976.64
2023-04-17T05:10:01.265Z,-23977.26
2023-04-17T05:12:30.864Z,-23977.61
2023-04-17T05:14:59.587Z,-23977.64
2023-04-17T05:17:28.914Z,-23977.52
2023-04-17T05:19:57.110Z,-23977.58
2023-04-17T05:22:25.862Z,-23977.58
2023-04-17T05:25:02.460Z,-23978.14
2023-04-17T05:27:31.047Z,-23979.02
2023-04-17T05:29:59.184Z,-23979.92
2023-04-17T05:32:27.408Z,-23980.70
2023-04-17T05:34:59.185Z,-23982.17
2023-04-17T05:37:28.530Z,-23983.89
2023-04-17T05:39:56.979Z,-23985.64
2023-04-17T05:42:25.158Z,-23987.58
2023-04-17T05:44:53.859Z,-23989.34
2023-04-17T05:47:22.130Z,-23991.24
2023-04-17T05:49:52.771Z,-23993.81
2023-04-17T05:52:21.418Z,-23996.59
2023-04-17T05:54:49.838Z,-23998.94
2023-04-17T05:57:18.931Z,-24001.66
2023-04-17T05:59:49.432Z,-24004.57
2023-04-17T06:02:17.925Z,-24006.69
2023-04-17T06:04:46.982Z,-24007.22
2023-04-17T06:07:15.354Z,-24007.44
2023-04-17T06:09:43.484Z,-24007.29
2023-04-17T06:12:16.433Z,-24006.94
2023-04-17T06:14:45.916Z,-24007.19
2023-04-17T06:17:15.988Z,-24007.72
2023-04-17T06:19:44.231Z,-24008.25
2023-04-17T06:22:12.375Z,-24008.72
2023-04-17T06:24:40.569Z,-24009.47
2023-04-17T06:27:08.698Z,-24009.13
2023-04-17T06:29:37.478Z,-24009.22
2023-04-17T06:32:06.512Z,-24008.63
2023-04-17T06:34:41.385Z,-24008.79
2023-04-17T06:37:14.972Z,-24008.66
2023-04-17T06:39:43.200Z,-24007.78
2023-04-17T06:42:11.888Z,-24006.32
2023-04-17T06:44:40.863Z,-24005.47
2023-04-17T06:47:13.761Z,-24005.32
2023-04-17T06:49:42.001Z,-24005.13
2023-04-17T06:52:10.257Z,-24004.19
2023-04-17T06:54:38.589Z,-24003.50
2023-04-17T06:57:10.041Z,-24002.84
2023-04-17T06:59:38.732Z,-24002.88
2023-04-17T07:02:06.850Z,-24003.82
2023-04-17T07:04:35.026Z,-24005.41
2023-04-17T07:07:03.352Z,-24006.56
2023-04-17T07:09:31.642Z,-24007.69
2023-04-17T07:11:59.924Z,-24009.75
2023-04-17T07:14:28.154Z,-24010.97
2023-04-17T07:16:56.316Z,-24011.32
2023-04-17T07:19:24.603Z,-24013.03
2023-04-17T07:21:53.398Z,-24014.59
2023-04-17T07:24:21.508Z,-24015.16
2023-04-17T07:26:49.790Z,-24014.53
2023-04-17T07:29:18.065Z,-24014.59
2023-04-17T07:31:46.440Z,-24015.28
2023-04-17T07:34:14.531Z,-24016.88
2023-04-17T07:36:42.679Z,-24018.41
2023-04-17T07:39:10.998Z,-24020.31
2023-04-17T07:41:39.403Z,-24021.88
2023-04-17T07:44:07.499Z,-24021.09
2023-04-17T07:46:36.071Z,-24019.34
2023-04-17T07:49:04.297Z,-24016.53
2023-04-17T07:51:33.035Z,-24013.97
2023-04-17T07:54:01.654Z,-24011.57
2023-04-17T07:56:31.981Z,-24010.94
2023-04-17T07:59:00.693Z,-24010.91
2023-04-17T08:01:29.088Z,-24011.44
2023-04-17T08:03:58.583Z,-24012.00
2023-04-17T08:06:27.457Z,-24012.00
2023-04-17T08:08:55.724Z,-24011.75
2023-04-17T08:11:23.811Z,-24011.50
2023-04-17T08:13:52.054Z,-24011.75
2023-04-17T08:16:20.308Z,-24012.60
2023-04-17T08:18:48.459Z,-24012.07
2023-04-17T08:21:16.595Z,-24012.22
2023-04-17T08:23:44.977Z,-24013.19
2023-04-17T08:26:13.234Z,-24014.72
2023-04-17T08:28:41.475Z,-24016.66
2023-04-17T08:31:11.090Z,-24019.13
2023-04-17T08:33:39.548Z,-24021.31
2023-04-17T08:36:10.000Z,-24023.31
2023-04-17T08:38:38.197Z,-24025.00
2023-04-17T08:41:08.818Z,-24027.34
2023-04-17T08:43:36.973Z,-24030.28
2023-04-17T08:46:05.349Z,-24032.27
2023-04-17T08:48:33.602Z,-24033.18
2023-04-17T08:51:03.053Z,-24032.93
2023-04-17T08:53:31.230Z,-24031.09
2023-04-17T08:56:03.572Z,-24029.21
2023-04-17T08:58:33.446Z,-24027.68
2023-04-17T09:01:12.095Z,-24026.28
2023-04-17T09:03:43.962Z,-24025.40
2023-04-17T09:06:12.926Z,-24024.84
2023-04-17T09:09:01.743Z,-24024.75
2023-04-17T09:11:30.625Z,-24024.63
2023-04-17T09:13:58.882Z,-24024.81
2023-04-17T09:16:28.641Z,-24024.88
2023-04-17T09:19:07.033Z,-24025.09
2023-04-17T09:21:35.174Z,-24026.53
2023-04-17T09:24:05.484Z,-24028.21
2023-04-17T09:26:33.603Z,-24030.09
2023-04-17T09:29:12.120Z,-24031.03
2023-04-17T09:31:42.518Z,-24032.24
2023-04-17T09:34:13.885Z,-24032.74
2023-04-17T09:36:43.317Z,-24031.71
2023-04-17T09:39:24.117Z,-24029.59
2023-04-17T09:42:06.542Z,-24028.65
2023-04-17T09:44:36.931Z,-24028.81
2023-04-17T09:47:05.298Z,-24028.37
2023-04-17T09:49:42.308Z,-24029.31
2023-04-17T09:52:12.154Z,-24031.71
2023-04-17T09:54:40.339Z,-24033.96
2023-04-17T09:57:09.457Z,-24035.61
2023-04-17T09:59:39.851Z,-24037.11
2023-04-17T10:02:09.596Z,-24039.57
2023-04-17T10:04:40.837Z,-24040.95
2023-04-17T10:07:09.181Z,-24041.70
2023-04-17T10:09:37.633Z,-24041.70
2023-04-17T10:12:05.837Z,-24040.42
2023-04-17T10:14:37.680Z,-24040.27
2023-04-17T10:17:25.107Z,-24042.17
2023-04-17T10:19:53.490Z,-24044.95
2023-04-17T10:22:21.891Z,-24047.47
2023-04-17T10:24:54.045Z,-24049.66
2023-04-17T10:27:25.191Z,-24051.81
2023-04-17T10:30:00.414Z,-24053.34
2023-04-17T10:32:29.351Z,-24054.90
2023-04-17T10:35:02.104Z,-24056.62
2023-04-17T10:37:50.308Z,-24058.36
2023-04-17T10:40:25.992Z,-24059.86
2023-04-17T10:43:03.663Z,-24060.86
2023-04-17T10:45:54.506Z,-24062.92
2023-04-17T10:48:27.247Z,-24065.38
2023-04-17T10:50:58.520Z,-24067.38
2023-04-17T10:53:43.419Z,-24069.50
2023-04-17T10:56:13.474Z,-24071.99
2023-04-17T10:58:58.916Z,-24074.14
2023-04-17T11:01:31.913Z,-24076.11
2023-04-17T11:04:00.491Z,-24078.13
2023-04-17T11:06:31.462Z,-24080.75
2023-04-17T11:09:00.041Z,-24084.24
2023-04-17T11:11:40.372Z,-24087.70
2023-04-17T11:14:16.918Z,-24091.62
2023-04-17T11:16:46.831Z,-24094.68
2023-04-17T11:19:23.271Z,-24097.70
2023-04-17T11:21:58.678Z,-24100.88
2023-04-17T11:24:28.527Z,-24103.12
2023-04-17T11:26:59.894Z,-24105.74
2023-04-17T11:29:28.596Z,-24108.07
2023-04-17T11:31:57.195Z,-24110.06
2023-04-17T11:34:26.222Z,-24111.81
2023-04-17T11:36:55.077Z,-24112.99
2023-04-17T11:39:24.191Z,-24114.11
2023-04-17T11:41:52.644Z,-24116.10
2023-04-17T11:44:21.262Z,-24118.56
2023-04-17T11:46:53.040Z,-24120.68
2023-04-17T11:49:30.696Z,-24122.70
2023-04-17T11:52:02.162Z,-24124.35
2023-04-17T11:54:34.666Z,-24125.53
2023-04-17T11:57:12.986Z,-24126.03
2023-04-17T11:59:46.251Z,-24126.43
2023-04-17T12:02:15.517Z,-24126.89
2023-04-17T12:04:43.982Z,-24126.84
2023-04-17T12:07:21.460Z,-24126.59
2023-04-17T12:09:59.065Z,-24126.65
2023-04-17T12:12:27.215Z,-24126.90
2023-04-17T12:14:55.547Z,-24128.27
2023-04-17T12:17:23.805Z,-24130.07
2023-04-17T12:19:52.190Z,-24131.66
2023-04-17T12:22:20.534Z,-24132.99
2023-04-17T12:24:48.726Z,-24134.83
2023-04-17T12:27:17.523Z,-24137.38
2023-04-17T12:29:45.817Z,-24139.15
2023-04-17T12:32:16.162Z,-24139.37
2023-04-17T12:34:44.419Z,-24140.36
2023-04-17T12:37:12.630Z,-24142.14
2023-04-17T12:39:40.720Z,-24143.38
2023-04-17T12:42:08.976Z,-24144.19
2023-04-17T12:44:37.242Z,-24145.03
2023-04-17T12:47:05.629Z,-24146.25
2023-04-17T12:49:35.410Z,-24148.05
2023-04-17T12:52:04.190Z,-24149.79
2023-04-17T12:54:33.305Z,-24151.13
2023-04-17T12:57:01.863Z,-24152.77
2023-04-17T12:59:30.062Z,-24153.98
2023-04-17T13:01:58.332Z,-24154.63
2023-04-17T13:04:26.803Z,-24154.17
2023-04-17T13:06:55.043Z,-24154.92
2023-04-17T13:09:23.500Z,-24154.76
2023-04-17T13:11:51.770Z,-24153.77
2023-04-17T13:14:19.960Z,-24153.21
2023-04-17T13:16:50.649Z,-24152.58
2023-04-17T13:19:19.107Z,-24152.40
2023-04-17T13:38:56.312Z,-24148.20
2023-04-17T13:41:24.603Z,-24149.35
2023-04-17T13:43:53.845Z,-24150.38
2023-04-17T13:46:22.334Z,-24151.99
2023-04-17T13:48:51.358Z,-24152.99
2023-04-17T13:51:19.533Z,-24153.33
2023-04-17T13:53:47.868Z,-24152.93
2023-04-17T13:56:16.154Z,-24152.28
2023-04-17T13:58:44.682Z,-24151.59
2023-04-17T14:01:14.138Z,-24150.78
2023-04-17T14:03:45.371Z,-24149.85
2023-04-17T14:06:14.440Z,-24149.17
2023-04-17T14:08:44.368Z,-24148.33
2023-04-17T14:11:13.222Z,-24148.48
2023-04-17T14:13:41.478Z,-24148.83
2023-04-17T14:16:09.644Z,-24149.11
2023-04-17T14:18:37.827Z,-24148.79
2023-04-17T14:21:06.190Z,-24148.48
2023-04-17T14:23:34.588Z,-24148.39
2023-04-17T14:26:02.764Z,-24148.52
2023-04-17T14:28:30.959Z,-24149.04
2023-04-17T14:30:59.271Z,-24149.60
2023-04-17T14:33:27.482Z,-24149.85
2023-04-17T14:35:57.008Z,-24150.38
2023-04-17T14:38:25.640Z,-24150.57
2023-04-17T14:40:53.867Z,-24149.91
2023-04-17T14:43:22.482Z,-24149.48
2023-04-17T14:45:51.468Z,-24148.95
2023-04-17T14:48:21.069Z,-24148.58
2023-04-17T14:50:49.915Z,-24147.93
2023-04-17T14:53:21.231Z,-24147.46
2023-04-17T14:55:50.145Z,-24147.46
2023-04-17T14:58:18.781Z,-24147.43
2023-04-17T15:00:47.079Z,-24147.30
2023-04-17T15:03:15.369Z,-24147.06
2023-04-17T15:05:45.646Z,-24146.99
2023-04-17T15:08:14.141Z,-24146.96
2023-04-17T15:10:50.832Z,-24146.81
2023-04-17T15:13:20.227Z,-24146.43
2023-04-17T15:15:48.797Z,-24146.15
2023-04-17T15:18:17.824Z,-24145.78
2023-04-17T15:20:46.467Z,-24145.16
2023-04-17T15:23:17.623Z,-24144.38
2023-04-17T15:25:45.857Z,-24143.88
2023-04-17T15:28:13.964Z,-24143.54
2023-04-17T15:30:42.215Z,-24143.13
2023-04-17T15:33:10.624Z,-24143.00
2023-04-17T15:35:39.047Z,-24142.32
2023-04-17T15:38:07.454Z,-24141.95
2023-04-17T15:40:35.834Z,-24141.23
2023-04-17T15:43:03.996Z,-24140.62
2023-04-17T15:45:33.416Z,-24140.37
2023-04-17T15:48:01.908Z,-24140.18
2023-04-17T15:50:30.543Z,-24139.83
2023-04-17T15:52:58.834Z,-24139.40
2023-04-17T15:55:27.268Z,-24138.72
2023-04-17T15:57:56.149Z,-24138.34
2023-04-17T16:00:24.505Z,-24137.69
2023-04-17T16:02:53.048Z,-24137.10
2023-04-17T16:05:21.986Z,-24136.26
2023-04-17T16:07:50.323Z,-24135.32
2023-04-17T16:10:19.096Z,-24134.64
2023-04-17T16:12:47.409Z,-24133.87
2023-04-17T16:15:18.968Z,-24133.21
2023-04-17T16:17:48.797Z,-24132.47
2023-04-17T16:20:17.373Z,-24131.47
2023-04-17T16:22:45.578Z,-24130.54
2023-04-17T16:25:13.753Z,-24129.36
2023-04-17T16:27:42.039Z,-24128.45
2023-04-17T16:30:10.669Z,-24127.43
2023-04-17T16:32:39.438Z,-24126.37
2023-04-17T16:35:08.025Z,-24125.25
2023-04-17T16:37:36.545Z,-24123.94
2023-04-17T16:40:05.509Z,-24122.86
2023-04-17T16:42:33.930Z,-24121.58
2023-04-17T16:45:02.147Z,-24120.46
2023-04-17T16:47:30.655Z,-24119.59
2023-04-17T16:49:58.965Z,-24118.56
2023-04-17T16:52:27.489Z,-24117.28
2023-04-17T16:54:55.686Z,-24115.70
2023-04-17T16:57:24.003Z,-24114.14
2023-04-17T16:59:52.217Z,-24112.80
2023-04-17T17:02:23.379Z,-24111.56
2023-04-17T17:04:52.107Z,-24109.82
2023-04-17T17:07:20.643Z,-24108.32
2023-04-17T17:09:49.009Z,-24106.61
2023-04-17T17:12:17.234Z,-24105.12
2023-04-17T17:14:45.512Z,-24103.87
2023-04-17T17:17:13.918Z,-24102.47
2023-04-17T17:19:41.967Z,-24100.72
2023-04-17T17:22:10.118Z,-24098.94
2023-04-17T17:24:38.558Z,-24097.70
2023-04-17T17:27:06.965Z,-24096.73
2023-04-17T17:29:35.536Z,-24095.67
2023-04-17T17:32:04.076Z,-24094.64
2023-04-17T17:34:32.650Z,-24093.90
2023-04-17T17:37:00.943Z,-24093.34
2023-04-17T17:39:29.315Z,-24092.56
2023-04-17T17:41:57.916Z,-24091.47
2023-04-17T17:44:26.252Z,-24090.35
2023-04-17T17:46:54.509Z,-24089.35
2023-04-17T17:49:22.803Z,-24088.45
2023-04-17T17:51:50.992Z,-24087.64
2023-04-17T17:54:19.326Z,-24087.17
2023-04-17T17:56:48.013Z,-24087.51
2023-04-17T17:59:16.186Z,-24087.95
2023-04-17T18:01:44.411Z,-24087.76
2023-04-17T18:04:12.793Z,-24086.89
2023-04-17T18:06:41.733Z,-24085.86
2023-04-17T18:09:09.798Z,-24084.71
2023-04-17T18:11:38.049Z,-24083.40
2023-04-17T18:14:06.839Z,-24082.37
2023-04-17T18:16:37.295Z,-24081.53
2023-04-17T18:19:05.488Z,-24080.25
2023-04-17T18:21:34.694Z,-24079.54
2023-04-17T18:24:02.911Z,-24079.25
2023-04-17T18:26:31.678Z,-24078.82
2023-04-17T18:29:00.050Z,-24078.44
2023-04-17T18:31:28.528Z,-24078.13
2023-04-17T18:33:56.988Z,-24077.45
2023-04-17T18:36:26.406Z,-24076.67
2023-04-17T18:38:54.629Z,-24075.89
2023-04-17T18:41:23.092Z,-24075.05
2023-04-17T18:43:51.195Z,-24074.39
2023-04-17T18:46:19.592Z,-24074.08
2023-04-17T18:48:47.836Z,-24073.83
2023-04-17T18:51:16.062Z,-24073.49
2023-04-17T18:53:44.211Z,-24073.49
2023-04-17T18:56:13.818Z,-24073.24
2023-04-17T18:58:42.191Z,-24072.68
2023-04-17T19:01:10.803Z,-24071.74
2023-04-17T19:03:39.564Z,-24070.87
2023-04-17T19:06:07.963Z,-24069.84
2023-04-17T19:08:36.906Z,-24069.59
2023-04-17T19:11:05.698Z,-24069.25
2023-04-17T19:13:34.652Z,-24069.44
2023-04-17T19:16:03.050Z,-24069.47
2023-04-17T19:18:31.481Z,-24069.46
2023-04-17T19:20:59.687Z,-24068.91
2023-04-17T19:23:27.934Z,-24068.41
2023-04-17T19:25:56.698Z,-24068.28
2023-04-17T19:28:25.489Z,-24069.06
2023-04-17T19:30:53.749Z,-24069.41
2023-04-17T19:33:23.092Z,-24069.68
2023-04-17T19:35:52.432Z,-24069.81
2023-04-17T19:38:21.505Z,-24069.93
2023-04-17T19:41:15.438Z,-24070.06
2023-04-17T19:43:47.255Z,-24070.21
2023-04-17T19:46:15.608Z,-24070.12
2023-04-17T19:48:44.925Z,-24070.18
2023-04-17T19:51:13.512Z,-24069.93
2023-04-17T19:53:43.115Z,-24069.93
2023-04-17T19:56:11.377Z,-24069.81
2023-04-17T19:58:40.395Z,-24069.96
2023-04-17T20:01:08.630Z,-24069.93
2023-04-17T20:03:39.462Z,-24070.75
2023-04-17T20:06:07.936Z,-24071.15
2023-04-17T20:08:36.581Z,-24071.43
2023-04-17T20:11:06.499Z,-24071.55
2023-04-17T20:13:34.834Z,-24071.43
2023-04-17T20:16:02.954Z,-24070.84
2023-04-17T20:18:31.521Z,-24070.66
2023-04-17T20:21:01.512Z,-24070.50
2023-04-17T20:23:29.825Z,-24070.31
2023-04-17T20:25:58.081Z,-24070.12
2023-04-17T20:28:28.917Z,-24069.93
2023-04-17T20:30:57.217Z,-24069.44
2023-04-17T20:33:25.584Z,-24069.25
2023-04-17T20:35:53.854Z,-24069.03
2023-04-17T20:38:22.025Z,-24069.25
2023-04-17T20:40:50.318Z,-24069.75
2023-04-17T20:43:18.490Z,-24069.96
2023-04-17T20:45:48.463Z,-24070.06
2023-04-17T20:48:16.743Z,-24070.21
2023-04-17T20:50:44.923Z,-24070.03
2023-04-17T20:53:13.039Z,-24069.78
2023-04-17T20:55:41.195Z,-24069.87
2023-04-17T20:58:09.466Z,-24069.71
2023-04-17T21:00:44.453Z,-24070.37
2023-04-17T21:03:15.853Z,-24071.40
2023-04-17T21:05:44.672Z,-24072.03
2023-04-17T21:08:13.303Z,-24072.31
2023-04-17T21:10:41.993Z,-24073.27
2023-04-17T21:13:10.164Z,-24074.24
2023-04-17T21:15:38.335Z,-24074.95
2023-04-17T21:18:06.564Z,-24075.33
2023-04-17T21:20:34.964Z,-24075.80
2023-04-17T21:23:03.121Z,-24075.55
2023-04-17T21:25:31.304Z,-24075.48
2023-04-17T21:27:59.440Z,-24075.20
2023-04-17T21:30:27.649Z,-24074.67
2023-04-17T21:32:56.197Z,-24073.89
2023-04-17T21:35:24.378Z,-24073.21
2023-04-17T21:37:52.518Z,-24072.15
2023-04-17T21:40:20.739Z,-24070.65
2023-04-17T21:42:48.836Z,-24069.53
2023-04-17T21:45:17.211Z,-24068.44
2023-04-17T21:47:45.351Z,-24066.91
2023-04-17T21:50:13.509Z,-24065.38
2023-04-17T21:52:42.278Z,-24064.32
2023-04-17T21:55:10.421Z,-24063.26
2023-04-17T21:57:39.339Z,-24061.95
2023-04-17T22:00:11.751Z,-24060.64
2023-04-17T22:02:40.443Z,-24059.37
2023-04-17T22:05:08.894Z,-24058.33
2023-04-17T22:07:47.272Z,-24057.55
2023-04-17T22:10:19.836Z,-24056.31
2023-04-17T22:12:48.089Z,-24055.25
2023-04-17T22:15:16.477Z,-24054.59
2023-04-17T22:17:44.932Z,-24053.50
2023-04-17T22:20:13.288Z,-24052.28
2023-04-17T22:22:41.471Z,-24050.69
2023-04-17T22:25:09.956Z,-24049.34
2023-04-17T22:27:39.128Z,-24048.04
2023-04-17T22:30:07.777Z,-24046.97
2023-04-17T22:32:36.299Z,-24045.94
2023-04-17T22:35:04.802Z,-24044.60
2023-04-17T22:37:33.790Z,-24043.26
2023-04-17T22:40:01.911Z,-24042.45
2023-04-17T22:42:30.961Z,-24041.42
2023-04-17T22:44:59.133Z,-24040.45
2023-04-17T22:47:27.397Z,-24039.33
2023-04-17T22:49:55.829Z,-24038.45
2023-04-17T22:52:24.058Z,-24037.80
2023-04-17T22:54:52.235Z,-24036.80
2023-04-17T22:57:20.395Z,-24035.89
2023-04-17T22:59:48.585Z,-24035.71
2023-04-17T23:02:16.856Z,-24035.86
2023-04-17T23:04:45.182Z,-24035.71
2023-04-17T23:07:13.502Z,-24035.21
2023-04-17T23:09:41.667Z,-24035.27
2023-04-17T23:12:09.833Z,-24035.27
2023-04-17T23:14:38.211Z,-24035.21
2023-04-17T23:17:06.703Z,-24034.89
2023-04-17T23:19:34.867Z,-24034.40
2023-04-17T23:22:03.081Z,-24033.77
2023-04-17T23:24:32.995Z,-24033.96
2023-04-17T23:27:02.155Z,-24033.71
2023-04-17T23:29:30.515Z,-24033.40
2023-04-17T23:31:58.632Z,-24033.09
2023-04-17T23:34:28.140Z,-24033.05
2023-04-17T23:36:56.433Z,-24032.74
2023-04-17T23:39:25.068Z,-24032.27
2023-04-17T23:41:53.636Z,-24031.80
2023-04-17T23:44:21.728Z,-24031.28
2023-04-17T23:46:50.033Z,-24030.25
2023-04-17T23:49:18.769Z,-24029.56
2023-04-17T23:51:46.935Z,-24028.87
2023-04-17T23:54:15.339Z,-24028.09
2023-04-17T23:56:43.776Z,-24027.37
2023-04-17T23:59:11.929Z,-24026.34
